Time;durP1;ratioP1;P1;durP2;ratioP2;P2;SDS_P1;SDS_P2;PMS_P1;PMS_P2;Temp;Humidity;BMP_temperature;BMP_pressure;BME280_temperature;BME280_humidity;BME280_pressure;Samples;Min_cycle;Max_cycle;Signal;HPM_P1;HPM_P2
2023/07/25 00:01:21;;;;;;;15.40;8.13;;;;;;;22.26;68.39;98897.31;4936518;29;20042;-86
2023/07/25 00:03:50;;;;;;;13.70;7.60;;;;;;;22.19;67.90;98895.19;4916699;28;20022;-86
2023/07/25 00:06:16;;;;;;;10.73;6.53;;;;;;;22.17;68.00;98894.75;4930157;28;20034;-86
2023/07/25 00:08:42;;;;;;;11.77;6.90;;;;;;;22.15;68.00;98891.56;4945323;28;20477;-86
2023/07/25 00:11:12;;;;;;;13.88;7.25;;;;;;;22.03;68.31;98874.44;4945076;28;20062;-86
2023/07/25 00:13:38;;;;;;;11.13;6.85;;;;;;;22.07;68.33;98892.56;4944972;28;20062;-86
2023/07/25 00:16:03;;;;;;;11.50;7.00;;;;;;;21.90;68.92;98880.03;4945095;28;20038;-86
2023/07/25 00:18:29;;;;;;;12.88;6.47;;;;;;;21.91;68.62;98878.88;4944704;28;20023;-86
2023/07/25 00:20:55;;;;;;;11.30;7.07;;;;;;;21.96;68.55;98875.09;4944632;28;20031;-86
2023/07/25 00:23:20;;;;;;;11.55;7.00;;;;;;;21.92;68.87;98880.47;4929234;28;20034;-86
2023/07/25 00:25:46;;;;;;;13.30;7.18;;;;;;;21.79;68.92;98866.09;4944587;28;20022;-86
2023/07/25 00:28:11;;;;;;;10.50;6.80;;;;;;;21.74;68.54;98857.34;4944829;28;20031;-86
2023/07/25 00:30:39;;;;;;;10.98;6.93;;;;;;;21.72;68.35;98854.94;4945271;28;20030;-86
2023/07/25 00:33:04;;;;;;;13.25;7.20;;;;;;;21.71;68.31;98858.84;4941439;29;20494;-86
2023/07/25 00:35:30;;;;;;;9.77;6.55;;;;;;;21.68;68.60;98856.81;4940334;29;20026;-86
2023/07/25 00:37:55;;;;;;;12.13;7.22;;;;;;;21.84;68.33;98875.19;4940951;29;20058;-87
2023/07/25 00:40:21;;;;;;;12.63;7.72;;;;;;;21.68;68.64;98853.28;4938328;28;20030;-86
2023/07/25 00:42:46;;;;;;;10.98;7.30;;;;;;;21.77;68.83;98865.66;4944951;28;20515;-85
2023/07/25 00:45:12;;;;;;;13.23;6.85;;;;;;;21.62;68.73;98847.28;4944888;28;20030;-86
2023/07/25 00:47:38;;;;;;;9.90;6.60;;;;;;;21.65;68.85;98860.28;4944501;28;20018;-85
2023/07/25 00:50:04;;;;;;;15.15;7.40;;;;;;;21.60;68.63;98863.28;4944177;28;20019;-85
2023/07/25 00:52:30;;;;;;;11.70;7.40;;;;;;;21.57;68.88;98864.78;4928327;28;20081;-85
2023/07/25 00:54:55;;;;;;;11.55;7.15;;;;;;;21.55;68.62;98858.84;4944425;28;20027;-85
2023/07/25 00:57:21;;;;;;;11.57;6.95;;;;;;;21.42;69.24;98856.56;4943528;28;20027;-85
2023/07/25 00:59:47;;;;;;;10.73;7.10;;;;;;;21.41;69.42;98872.16;4944579;28;20018;-85
2023/07/25 01:02:13;;;;;;;12.80;7.25;;;;;;;21.34;69.56;98872.00;4945221;28;20033;-86
2023/07/25 01:04:39;;;;;;;13.13;7.43;;;;;;;21.29;69.69;98870.34;4960634;28;20113;-85
2023/07/25 01:07:05;;;;;;;13.45;7.35;;;;;;;21.12;70.02;98846.78;4945335;28;20444;-85
2023/07/25 01:09:45;;;;;;;11.77;7.47;;;;;;;21.18;69.87;98864.56;4951976;28;20019;-86
2023/07/25 01:12:11;;;;;;;13.27;7.03;;;;;;;21.25;70.20;98871.38;4945097;28;20038;-85
2023/07/25 01:14:37;;;;;;;13.00;7.03;;;;;;;21.24;69.69;98873.31;4928105;28;20030;-85
2023/07/25 01:17:06;;;;;;;13.65;7.75;;;;;;;21.24;70.04;98862.38;4944136;28;20027;-85
2023/07/25 01:19:32;;;;;;;11.65;6.95;;;;;;;21.20;69.92;98856.00;4943407;28;20452;-86
2023/07/25 01:21:58;;;;;;;12.02;6.97;;;;;;;21.20;69.88;98845.84;4943311;28;20035;-84
2023/07/25 01:24:23;;;;;;;14.95;8.70;;;;;;;21.22;69.73;98850.97;4927118;28;20448;-86
2023/07/25 01:26:49;;;;;;;12.75;7.50;;;;;;;21.19;69.67;98857.16;4943932;28;20114;-86
2023/07/25 01:29:15;;;;;;;15.60;8.32;;;;;;;21.17;69.80;98851.25;4943041;28;20026;-86
2023/07/25 01:31:40;;;;;;;13.32;7.57;;;;;;;21.23;69.73;98863.53;4959904;28;20539;-85
2023/07/25 01:34:06;;;;;;;11.07;7.43;;;;;;;21.16;69.57;98855.13;4928876;28;20031;-85
2023/07/25 01:36:31;;;;;;;10.85;7.93;;;;;;;21.09;69.56;98855.72;4927485;28;20023;-85
2023/07/25 01:38:57;;;;;;;12.32;7.50;;;;;;;21.08;69.42;98850.59;4960384;28;20022;-86
2023/07/25 01:41:23;;;;;;;11.63;7.95;;;;;;;21.03;69.63;98848.91;4927572;28;20041;-85
2023/07/25 01:43:56;;;;;;;11.20;7.40;;;;;;;21.06;70.15;98848.19;4959086;28;20058;-85
2023/07/25 01:46:22;;;;;;;14.45;8.63;;;;;;;21.07;70.25;98857.22;4945707;28;20403;-85
2023/07/25 01:48:47;;;;;;;10.70;7.55;;;;;;;21.06;70.70;98861.88;4928003;28;20023;-85
2023/07/25 01:51:12;;;;;;;13.15;7.28;;;;;;;20.97;70.47;98853.06;4943338;28;20022;-85
2023/07/25 01:53:38;;;;;;;14.63;7.70;;;;;;;20.91;70.46;98838.81;4943967;28;20504;-85
2023/07/25 01:56:03;;;;;;;12.40;7.60;;;;;;;20.90;70.58;98839.19;4927521;28;20477;-85
2023/07/25 01:58:29;;;;;;;11.50;7.70;;;;;;;20.91;71.48;98854.47;4927972;28;20026;-86
2023/07/25 02:00:58;;;;;;;13.15;7.10;;;;;;;20.89;71.55;98849.31;4927897;28;20030;-85
2023/07/25 02:03:24;;;;;;;14.90;7.88;;;;;;;20.77;71.35;98841.19;4926950;28;20056;-85
2023/07/25 02:05:50;;;;;;;11.70;7.70;;;;;;;20.79;71.00;98850.66;4943438;28;20031;-85
2023/07/25 02:08:15;;;;;;;11.25;7.40;;;;;;;20.80;71.46;98848.69;4943823;28;20033;-85
2023/07/25 02:10:41;;;;;;;11.40;7.10;;;;;;;20.82;71.49;98849.16;4927343;28;20026;-85
2023/07/25 02:13:08;;;;;;;17.08;8.32;;;;;;;20.82;71.37;98856.56;4927174;28;20035;-86
2023/07/25 02:15:34;;;;;;;11.32;7.82;;;;;;;20.74;72.02;98850.09;4958756;28;20030;-85
2023/07/25 02:18:00;;;;;;;16.13;8.10;;;;;;;20.73;71.25;98843.03;4942984;28;20031;-85
2023/07/25 02:20:27;;;;;;;13.63;8.00;;;;;;;20.74;71.79;98848.16;4926558;28;20034;-85
2023/07/25 02:22:52;;;;;;;13.80;7.75;;;;;;;20.65;71.76;98842.06;4927272;28;20031;-85
2023/07/25 02:25:18;;;;;;;11.40;7.82;;;;;;;20.75;72.05;98848.94;4926077;28;20101;-85
2023/07/25 02:27:43;;;;;;;16.77;8.40;;;;;;;20.72;72.56;98847.69;4927387;28;20034;-85
2023/07/25 02:30:09;;;;;;;16.73;8.43;;;;;;;20.80;72.28;98848.69;4927000;28;20023;-85
2023/07/25 02:32:34;;;;;;;16.08;8.60;;;;;;;20.83;72.19;98850.72;4927182;28;20035;-84
2023/07/25 02:35:00;;;;;;;14.50;9.15;;;;;;;20.78;71.92;98857.25;4926993;28;20027;-85
2023/07/25 02:37:25;;;;;;;15.73;8.00;;;;;;;20.74;72.37;98856.34;4942698;28;20027;-85
2023/07/25 02:39:51;;;;;;;13.25;7.80;;;;;;;20.74;71.79;98856.34;4942774;28;20460;-85
2023/07/25 02:42:16;;;;;;;16.58;8.90;;;;;;;20.66;72.25;98842.84;4926588;28;20043;-86
2023/07/25 02:44:42;;;;;;;16.63;8.63;;;;;;;20.59;71.80;98844.22;4927411;28;20034;-85
2023/07/25 02:47:07;;;;;;;11.65;7.63;;;;;;;20.56;72.85;98844.88;4942589;28;20594;-85
2023/07/25 02:49:33;;;;;;;17.10;8.45;;;;;;;20.55;72.51;98850.72;4941761;28;20023;-86
2023/07/25 02:51:58;;;;;;;14.13;7.68;;;;;;;20.53;72.86;98858.47;4926043;28;20034;-86
2023/07/25 02:54:24;;;;;;;11.98;8.00;;;;;;;20.55;72.20;98845.25;4927009;28;20033;-85
2023/07/25 02:56:49;;;;;;;20.67;8.70;;;;;;;20.63;72.74;98859.94;4943114;28;20048;-85
2023/07/25 02:59:19;;;;;;;13.20;8.50;;;;;;;20.46;73.04;98839.94;4927227;28;20539;-85
2023/07/25 03:01:44;;;;;;;13.98;8.27;;;;;;;20.57;72.90;98848.44;4927482;28;20460;-87
2023/07/25 03:04:10;;;;;;;12.95;8.68;;;;;;;20.39;72.96;98831.50;4929368;28;20039;-83
2023/07/25 03:06:35;;;;;;;12.52;8.13;;;;;;;20.38;72.72;98832.66;4947236;28;20050;-85
2023/07/25 03:09:03;;;;;;;14.05;8.23;;;;;;;20.43;72.81;98846.09;4946645;28;20026;-85
2023/07/25 03:11:30;;;;;;;13.68;8.70;;;;;;;20.44;72.97;98844.13;4930007;28;20051;-85
2023/07/25 03:13:55;;;;;;;18.63;8.73;;;;;;;20.48;73.14;98858.72;4930090;28;20068;-86
2023/07/25 03:16:21;;;;;;;16.60;8.75;;;;;;;20.38;73.38;98843.59;4963149;28;20035;-86
2023/07/25 03:18:48;;;;;;;16.80;9.05;;;;;;;20.35;73.28;98847.81;4946795;28;20030;-86
2023/07/25 03:21:16;;;;;;;14.10;7.97;;;;;;;20.32;72.88;98834.06;4930418;28;20081;-86
2023/07/25 03:23:42;;;;;;;14.68;9.18;;;;;;;20.33;73.08;98850.09;4930270;28;20034;-86
2023/07/25 03:26:07;;;;;;;15.65;9.13;;;;;;;20.35;73.16;98845.06;4946573;28;20117;-87
2023/07/25 03:28:33;;;;;;;16.90;9.35;;;;;;;20.43;72.32;98832.41;4942852;29;20031;-89
2023/07/25 03:30:58;;;;;;;15.75;9.07;;;;;;;20.26;72.92;98825.28;4944858;28;20042;-87
2023/07/25 03:33:27;;;;;;;13.38;8.88;;;;;;;20.41;73.62;98844.84;4946275;28;20034;-86
2023/07/25 03:35:54;;;;;;;14.50;8.98;;;;;;;20.31;73.56;98838.72;4930650;28;20034;-86
2023/07/25 03:38:19;;;;;;;13.00;9.13;;;;;;;20.29;73.15;98838.25;4945525;28;20037;-86
2023/07/25 03:40:45;;;;;;;16.25;9.60;;;;;;;20.31;72.95;98838.72;4945778;28;20035;-85
2023/07/25 03:43:10;;;;;;;14.05;9.20;;;;;;;20.34;72.62;98843.50;4946353;28;20074;-86
2023/07/25 03:45:39;;;;;;;18.10;10.27;;;;;;;20.33;73.08;98838.38;4946141;28;20062;-87
2023/07/25 03:48:04;;;;;;;19.02;12.60;;;;;;;20.46;72.79;98833.66;4947094;28;20023;-90
2023/07/25 03:50:30;;;;;;;17.70;9.00;;;;;;;20.48;72.91;98826.72;4934724;28;20485;-87
2023/07/25 03:52:58;;;;;;;15.30;8.85;;;;;;;20.43;73.03;98826.94;4946802;28;20011;-86
2023/07/25 03:55:23;;;;;;;14.00;8.98;;;;;;;20.49;72.78;98822.03;4930537;28;20106;-86
2023/07/25 03:57:50;;;;;;;15.23;8.52;;;;;;;20.59;72.23;98835.25;4945663;28;20489;-86
2023/07/25 04:00:15;;;;;;;13.15;8.80;;;;;;;20.67;71.77;98834.28;4928992;28;20099;-85
2023/07/25 04:02:41;;;;;;;26.15;10.88;;;;;;;20.82;72.27;98840.94;4945248;28;20041;-87
2023/07/25 04:05:07;;;;;;;15.73;8.45;;;;;;;20.74;72.04;98834.47;4950011;28;20089;-86
2023/07/25 04:07:34;;;;;;;19.17;9.48;;;;;;;20.81;71.75;98833.88;4955018;28;20086;-87
2023/07/25 04:09:59;;;;;;;17.10;9.50;;;;;;;20.93;70.95;98827.53;4928467;28;20058;-85
2023/07/25 04:12:25;;;;;;;18.50;10.38;;;;;;;20.95;71.20;98838.94;4928302;29;20051;-86
2023/07/25 04:14:51;;;;;;;17.13;9.52;;;;;;;20.85;71.60;98828.50;4927254;28;20085;-88
2023/07/25 04:17:16;;;;;;;17.27;9.50;;;;;;;20.88;71.49;98816.88;4941459;28;20042;-88
2023/07/25 04:19:42;;;;;;;16.98;9.25;;;;;;;20.89;71.33;98821.97;4949347;28;20022;-86
2023/07/25 04:22:07;;;;;;;14.30;9.25;;;;;;;20.88;71.13;98819.59;4940267;29;20031;-88
2023/07/25 04:24:33;;;;;;;19.40;8.80;;;;;;;21.06;71.08;98831.78;4945798;28;20034;-88
2023/07/25 04:26:58;;;;;;;17.55;9.63;;;;;;;21.18;70.54;98820.75;4943318;28;20030;-86
2023/07/25 04:29:24;;;;;;;17.73;9.15;;;;;;;21.40;70.08;98816.59;4936870;29;20027;-86
2023/07/25 04:31:49;;;;;;;15.77;9.20;;;;;;;21.44;68.83;98813.22;4930292;28;20026;-87
2023/07/25 04:34:15;;;;;;;25.80;11.68;;;;;;;21.51;68.40;98810.63;4942861;28;20113;-87
2023/07/25 04:36:40;;;;;;;22.58;9.70;;;;;;;21.83;68.52;98836.03;4943082;28;20026;-88
2023/07/25 04:39:06;;;;;;;14.20;8.85;;;;;;;22.03;68.02;98842.34;4929346;28;20034;-88
2023/07/25 04:41:31;;;;;;;21.95;9.75;;;;;;;21.98;67.72;98834.41;4954344;28;20109;-88
2023/07/25 04:43:57;;;;;;;21.75;9.65;;;;;;;22.18;67.36;98822.31;4965401;28;20026;-90
2023/07/25 04:46:23;;;;;;;25.13;9.27;;;;;;;22.31;66.68;98823.00;4944107;28;20033;-92
2023/07/25 04:48:54;;;;;;;16.58;8.43;;;;;;;22.37;63.00;98820.75;4946861;28;20033;-92
2023/07/25 04:51:20;;;;;;;21.48;9.25;;;;;;;22.44;66.85;98828.34;4932450;28;20039;-90
2023/07/25 04:53:48;;;;;;;17.58;9.52;;;;;;;22.50;64.45;98833.19;4930968;28;20035;-95
2023/07/25 04:56:15;;;;;;;12.73;7.38;;;;;;;22.57;60.00;98822.31;4948817;28;20037;-95
2023/07/25 04:58:43;;;;;;;10.40;6.30;;;;;;;22.75;57.68;98832.88;4947244;28;20026;-94
2023/07/25 05:01:09;;;;;;;12.82;6.50;;;;;;;22.93;57.10;98839.50;4932482;28;20041;-90
2023/07/25 05:03:37;;;;;;;9.60;6.03;;;;;;;22.89;56.47;98805.69;4931947;28;20027;-93
2023/07/25 05:06:03;;;;;;;11.85;6.53;;;;;;;23.00;56.35;98816.84;4931688;28;20104;-93
2023/07/25 05:08:31;;;;;;;9.88;6.32;;;;;;;23.14;56.25;98821.84;4932208;28;20109;-92
2023/07/25 05:11:01;;;;;;;13.02;6.68;;;;;;;23.32;55.81;98806.44;4933079;28;20038;-92
2023/07/25 05:13:26;;;;;;;10.65;6.13;;;;;;;23.56;55.17;98816.25;4932372;28;20405;-91
2023/07/25 05:15:52;;;;;;;13.27;6.30;;;;;;;23.79;55.72;98834.66;4924678;29;20018;-94
2023/07/25 05:18:17;;;;;;;11.07;6.65;;;;;;;23.69;54.01;98807.78;4942523;28;20033;-92
2023/07/25 05:20:43;;;;;;;10.90;7.03;;;;;;;23.82;54.71;98800.13;4942831;28;20034;-91
2023/07/25 05:23:09;;;;;;;12.50;6.40;;;;;;;24.01;54.85;98816.53;4938387;28;20042;-92
2023/07/25 05:25:43;;;;;;;10.23;6.28;;;;;;;24.19;54.20;98817.53;4932803;28;20042;-90
2023/07/25 05:28:11;;;;;;;16.45;7.75;;;;;;;24.24;54.78;98796.38;4932893;28;20038;-92
2023/07/25 05:34:30;;;;;;;11.63;6.82;;;;;;;24.41;54.01;98795.81;4912565;29;20036;-87
2023/07/25 05:44:02;;;;;;;15.45;10.65;;;;;;;24.79;54.40;98810.41;4903196;29;20055;-95
2023/07/25 05:54:21;;;;;;;;;;;;;;;;;;;;;
2023/07/25 05:57:03;;;;;;;;;;;;;;;;;;;;;
2023/07/25 05:59:58;;;;;;;20.40;7.72;;;;;;;25.34;53.01;98757.41;4895244;29;20097;-92
2023/07/25 06:02:34;;;;;;;14.35;6.40;;;;;;;25.51;53.09;98764.97;4881198;29;20048;-92
2023/07/25 06:05:07;;;;;;;15.65;10.38;;;;;;;25.74;52.69;98755.66;4886418;29;20040;-93
2023/07/25 06:08:13;;;;;;;14.30;7.13;;;;;;;25.85;51.62;98748.22;4902984;28;20026;-93
2023/07/25 06:10:39;;;;;;;13.40;6.32;;;;;;;25.83;50.34;98741.53;4906465;29;20040;-92
2023/07/25 06:17:21;;;;;;;;;;;;;;;;;;;;;
2023/07/25 06:21:01;;;;;;;10.82;6.53;;;;;;;26.45;49.02;98729.56;4855551;29;20080;-90
2023/07/25 06:28:05;;;;;;;;;;;;;;;;;;;;;
2023/07/25 06:34:15;;;;;;;11.55;6.40;;;;;;;27.34;47.79;98750.97;4737568;30;20551;-92
2023/07/25 06:36:43;;;;;;;15.13;8.00;;;;;;;27.34;47.43;98726.88;4783418;29;20045;-95
2023/07/25 06:50:37;;;;;;;;;;;;;;;;;;;;;
2023/07/25 06:53:12;;;;;;;12.95;5.88;;;;;;;28.13;44.44;98728.66;4797172;29;20107;-94
2023/07/25 06:55:38;;;;;;;10.77;6.22;;;;;;;28.29;44.78;98719.88;4785319;30;20035;-95
2023/07/25 06:58:10;;;;;;;13.05;6.15;;;;;;;28.44;45.54;98715.03;4797665;30;20046;-95
2023/07/25 07:03:14;;;;;;;54.70;44.35;;;;;;;28.63;45.57;98699.91;5386620;23;20059;-96
2023/07/25 07:06:13;;;;;;;29.63;21.35;;;;;;;28.80;43.92;98704.50;4975721;28;20065;-96
2023/07/25 07:09:39;;;;;;;14.85;7.93;;;;;;;29.03;44.05;98715.00;4952980;29;20035;-96
2023/07/25 07:12:15;;;;;;;22.13;14.57;;;;;;;29.12;44.11;98697.97;4973494;29;20052;-96
2023/07/25 07:14:40;;;;;;;13.30;7.85;;;;;;;29.19;44.35;98684.00;4973543;28;20034;-95
2023/07/25 07:21:10;;;;;;;13.43;5.63;;;;;;;29.53;43.43;98684.06;5010141;28;20061;-94
2023/07/25 07:23:36;;;;;;;10.25;6.00;;;;;;;29.58;43.87;98666.16;4977544;28;20041;-95
2023/07/25 07:26:07;;;;;;;9.60;5.70;;;;;;;29.81;43.54;98682.94;4961234;28;20026;-91
2023/07/25 07:28:41;;;;;;;;;;;;;;;30.05;43.42;98694.16;4952389;28;20037;-94
2023/07/25 07:31:34;;;;;;;11.68;6.68;;;;;;;30.02;43.97;98673.56;4979960;28;20008;-90
2023/07/25 07:34:18;;;;;;;13.55;7.13;;;;;;;30.14;43.13;98665.88;4972871;28;20026;-89
2023/07/25 07:36:44;;;;;;;14.68;10.05;;;;;;;30.38;42.86;98687.00;4954246;28;20537;-91
2023/07/25 07:39:29;;;;;;;;;;;;;;;;;;;;;
2023/07/25 07:41:55;;;;;;;12.75;6.90;;;;;;;30.64;42.50;98672.72;4969379;28;20097;-91
2023/07/25 07:44:33;;;;;;;12.13;5.65;;;;;;;30.78;41.79;98675.25;4968488;28;20046;-89
2023/07/25 07:47:11;;;;;;;11.15;6.78;;;;;;;30.80;42.24;98662.50;4954207;28;20062;-91
2023/07/25 07:49:39;;;;;;;11.00;5.95;;;;;;;31.12;41.72;98688.22;4949526;28;20027;-89
2023/07/25 07:52:05;;;;;;;8.43;5.28;;;;;;;31.12;41.27;98663.97;4948596;28;20029;-88
2023/07/25 07:54:32;;;;;;;11.98;5.90;;;;;;;31.26;40.34;98662.91;4948876;28;20027;-87
2023/07/25 07:56:58;;;;;;;8.20;5.53;;;;;;;31.37;40.85;98646.03;4963039;28;20117;-87
2023/07/25 07:59:49;;;;;;;16.08;6.93;;;;;;;31.48;40.55;98654.19;4949859;28;20109;-87
2023/07/25 08:02:37;;;;;;;58.42;45.55;;;;;;;31.58;39.67;98634.47;4984316;28;20118;-86
2023/07/25 08:05:03;;;;;;;23.10;14.82;;;;;;;31.86;39.66;98656.59;4961933;28;20126;-88
2023/07/25 08:07:38;;;;;;;10.88;6.47;;;;;;;31.94;38.79;98647.66;4987888;28;20036;-89
2023/07/25 08:10:04;;;;;;;11.00;6.32;;;;;;;32.05;39.52;98655.81;4967122;28;20034;-88
2023/07/25 08:12:41;;;;;;;11.55;5.40;;;;;;;32.12;38.46;98644.50;4953371;28;20082;-90
2023/07/25 08:15:10;;;;;;;9.57;5.38;;;;;;;32.32;37.91;98635.31;4951802;28;20034;-89
2023/07/25 08:17:48;;;;;;;54.47;21.48;;;;;;;32.48;37.19;98634.50;4948105;28;20409;-87
2023/07/25 08:20:24;;;;;;;14.23;6.60;;;;;;;32.52;37.69;98629.63;4935969;28;20030;-91
2023/07/25 08:22:59;;;;;;;10.77;5.38;;;;;;;32.66;37.27;98618.16;4948368;28;20038;-93
2023/07/25 08:31:52;;;;;;;9.27;5.50;;;;;;;33.00;37.35;98608.53;4973998;28;20054;-94
2023/07/25 08:34:20;;;;;;;9.73;5.78;;;;;;;33.24;37.02;98613.91;4955249;28;20078;-95
2023/07/25 08:37:09;;;;;;;12.30;4.72;;;;;;;33.35;37.30;98606.00;4955953;28;20058;-96
2023/07/25 08:39:34;;;;;;;12.05;5.82;;;;;;;33.35;36.12;98612.38;4935669;29;20119;-96
2023/07/25 08:42:00;;;;;;;12.30;5.68;;;;;;;33.37;36.00;98590.41;4931824;29;20517;-96
2023/07/25 08:44:26;;;;;;;13.02;5.68;;;;;;;33.52;36.33;98593.56;4930467;29;20098;-95
2023/07/25 08:47:43;;;;;;;14.32;6.20;;;;;;;33.67;36.71;98596.72;4936653;29;20103;-96
2023/07/25 09:06:27;;;;;;;11.38;4.70;;;;;;;34.14;34.26;98587.75;6174252;22;2718586;-94
2023/07/25 09:18:26;;;;;;;13.40;4.97;;;;;;;34.75;34.05;98580.16;6338469;22;20025;-96
2023/07/25 09:31:19;;;;;;;7.32;5.00;;;;;;;35.11;32.18;98564.88;6342229;22;20073;-96
2023/07/25 09:38:58;;;;;;;9.13;4.45;;;;;;;35.59;30.94;98578.72;6330121;22;20026;-88
2023/07/25 09:41:27;;;;;;;14.25;5.30;;;;;;;35.62;31.06;98569.44;6246203;22;19999;-87
2023/07/25 09:43:53;;;;;;;15.05;8.95;;;;;;;35.62;31.13;98559.00;6236930;22;20015;-87
2023/07/25 10:28:20;;;;;;;10.85;4.70;;;;;;;36.56;28.53;98510.41;6362286;22;20006;-96
2023/07/25 10:33:46;;;;;;;7.82;4.78;;;;;;;36.75;27.61;98520.44;6324039;22;20002;-96
2023/07/25 10:36:42;;;;;;;;;;;;;;;;;;;;;
2023/07/25 10:39:09;;;;;;;13.70;5.22;;;;;;;36.91;27.67;98504.50;6309280;22;20038;-89
2023/07/25 10:41:41;;;;;;;7.93;4.63;;;;;;;37.03;27.95;98505.59;6295396;22;19999;-90
2023/07/25 10:44:06;;;;;;;10.93;5.50;;;;;;;37.06;28.97;98513.06;6266912;22;20384;-88
2023/07/25 10:46:35;;;;;;;11.05;4.88;;;;;;;37.08;28.83;98499.34;6291101;22;20022;-88
2023/07/25 10:49:04;;;;;;;10.55;5.25;;;;;;;37.11;28.02;98492.81;6268563;22;19999;-89
2023/07/25 10:51:52;;;;;;;10.88;5.30;;;;;;;37.21;28.54;98489.50;6269417;22;20003;-87
2023/07/25 10:54:22;;;;;;;14.00;6.90;;;;;;;37.20;28.50;98487.16;6300856;22;19999;-95
2023/07/25 10:57:22;;;;;;;;;;;;;;;;;;;;;
2023/07/25 11:00:33;;;;;;;11.63;5.15;;;;;;;37.31;27.52;98511.94;6326360;22;20006;-95
2023/07/25 11:03:17;;;;;;;11.50;5.65;;;;;;;37.29;27.62;98497.59;6323622;22;20023;-95
2023/07/25 11:05:47;;;;;;;10.98;5.22;;;;;;;37.24;27.43;98490.59;6298142;22;20003;-96
2023/07/25 11:08:15;;;;;;;10.73;5.13;;;;;;;37.24;27.28;98479.34;6288408;22;20006;-88
2023/07/25 11:10:41;;;;;;;8.30;5.00;;;;;;;37.29;27.38;98478.72;6309869;22;20061;-87
2023/07/25 11:13:11;;;;;;;10.95;5.57;;;;;;;37.34;27.72;98482.94;6289751;22;19991;-96
2023/07/25 11:15:37;;;;;;;9.93;4.75;;;;;;;37.52;26.88;98482.06;6268383;22;20003;-96
2023/07/25 11:24:58;;;;;;;10.48;5.80;;;;;;;37.43;28.08;98457.59;6317983;22;20359;-88
2023/07/25 11:27:51;;;;;;;9.73;5.82;;;;;;;37.50;28.42;98456.47;6269792;22;20033;-96
2023/07/25 11:30:29;;;;;;;11.55;5.80;;;;;;;37.57;28.41;98462.56;6296600;22;20009;-94
2023/07/25 11:33:14;;;;;;;12.43;5.38;;;;;;;37.53;28.29;98450.69;6274414;22;19999;-96
2023/07/25 11:36:11;;;;;;;10.45;5.30;;;;;;;37.63;28.46;98461.94;6268725;22;20094;-86
2023/07/25 11:39:27;;;;;;;9.77;5.93;;;;;;;37.62;29.24;98447.09;6286084;22;20003;-89
2023/07/25 11:42:06;;;;;;;11.00;5.95;;;;;;;37.73;29.36;98461.41;6192839;23;20011;-89
2023/07/25 11:44:34;;;;;;;12.27;7.13;;;;;;;37.66;28.74;98446.91;6170536;23;19997;-89
2023/07/25 11:47:00;;;;;;;12.40;6.43;;;;;;;37.66;28.80;98456.13;6241119;22;20007;-86
2023/07/25 11:49:26;;;;;;;13.10;6.45;;;;;;;37.61;28.54;98440.69;6286605;22;20082;-86
2023/07/25 11:51:54;;;;;;;12.23;5.68;;;;;;;37.78;27.83;98440.28;6283843;22;20053;-87
2023/07/25 11:54:22;;;;;;;13.13;5.90;;;;;;;37.97;28.01;98450.16;6283610;22;20007;-88
2023/07/25 11:56:47;;;;;;;11.43;5.90;;;;;;;37.71;28.81;98440.63;6264045;22;20429;-89
2023/07/25 11:59:19;;;;;;;16.10;6.20;;;;;;;37.85;27.88;98445.53;6262474;22;20076;-89
2023/07/25 12:02:05;;;;;;;12.20;6.10;;;;;;;37.75;28.23;98436.41;6287965;22;20003;-86
2023/07/25 12:04:44;;;;;;;13.65;6.05;;;;;;;37.70;28.51;98430.66;6263804;22;20055;-88
2023/07/25 12:07:10;;;;;;;17.15;6.18;;;;;;;37.72;28.56;98426.13;6283423;22;20002;-88
2023/07/25 12:10:31;;;;;;;10.15;6.50;;;;;;;37.91;27.21;98429.59;6309758;22;20416;-88
2023/07/25 12:13:08;;;;;;;;;;;;;;;;;;;;;
2023/07/25 12:15:44;;;;;;;12.95;5.57;;;;;;;37.95;27.92;98393.66;6309255;22;20106;-87
2023/07/25 12:18:29;;;;;;;13.13;6.45;;;;;;;38.15;27.90;98409.94;6316743;22;20072;-86
2023/07/25 12:20:58;;;;;;;15.73;5.82;;;;;;;38.08;28.22;98399.03;6263696;22;19999;-88
2023/07/25 12:23:51;;;;;;;8.10;5.55;;;;;;;38.18;27.63;98397.72;6295753;22;19991;-86
2023/07/25 12:26:20;;;;;;;13.63;7.05;;;;;;;38.27;27.56;98399.69;6269754;22;20412;-88
2023/07/25 12:28:52;;;;;;;11.23;5.75;;;;;;;38.31;27.46;98400.28;6292171;22;20030;-85
2023/07/25 12:31:20;;;;;;;11.20;5.63;;;;;;;38.39;26.56;98395.03;6258136;22;19999;-85
2023/07/25 12:33:58;;;;;;;8.48;5.75;;;;;;;38.30;26.44;98381.84;6259841;22;20071;-89
2023/07/25 12:37:03;;;;;;;8.57;5.30;;;;;;;38.35;27.02;98386.00;6280865;22;20042;-88
2023/07/25 12:39:39;;;;;;;14.48;6.20;;;;;;;38.26;27.58;98380.47;6288363;22;19999;-87
2023/07/25 12:42:07;;;;;;;9.98;5.80;;;;;;;38.37;27.73;98386.31;6285844;22;20688;-88
2023/07/25 12:44:35;;;;;;;13.15;6.22;;;;;;;38.50;26.99;98383.22;6283375;22;19995;-90
2023/07/25 12:47:04;;;;;;;8.10;5.13;;;;;;;38.60;27.18;98387.50;6259707;22;20426;-90
2023/07/25 12:52:48;;;;;;;10.50;5.32;;;;;;;38.78;26.90;98372.47;6232487;23;20607;-87
2023/07/25 12:55:19;;;;;;;13.25;6.25;;;;;;;38.98;26.73;98388.72;6284805;22;20072;-86
2023/07/25 12:57:44;;;;;;;13.18;5.57;;;;;;;38.95;26.63;98370.72;6265111;22;20416;-90
2023/07/25 13:00:16;;;;;;;9.52;5.15;;;;;;;38.97;26.87;98373.06;6268081;22;20018;-87
2023/07/25 13:03:11;;;;;;;7.57;5.03;;;;;;;39.12;26.73;98379.47;6267173;22;20009;-87
2023/07/25 13:05:41;;;;;;;8.15;5.15;;;;;;;38.85;27.35;98357.22;6283691;22;20063;-89
2023/07/25 13:08:08;;;;;;;8.98;5.55;;;;;;;38.79;27.28;98349.50;6267301;22;20001;-96
2023/07/25 13:10:35;;;;;;;11.73;5.07;;;;;;;38.88;27.31;98359.09;6268071;22;19999;-96
2023/07/25 13:13:04;;;;;;;9.90;6.03;;;;;;;38.78;27.79;98358.41;6299497;22;19999;-93
2023/07/25 13:15:31;;;;;;;11.48;5.18;;;;;;;38.81;27.76;98358.22;6271805;22;20029;-95
2023/07/25 13:18:05;;;;;;;7.25;4.85;;;;;;;38.85;28.11;98351.59;6219772;22;20040;-96
2023/07/25 13:26:21;;;;;;;11.45;5.10;;;;;;;38.90;27.94;98348.88;6317405;22;20030;-96
2023/07/25 13:31:24;;;;;;;10.25;5.35;;;;;;;38.90;28.40;98343.25;6374770;22;20022;-94
2023/07/25 13:33:52;;;;;;;9.93;5.25;;;;;;;39.20;28.12;98358.09;6301827;22;20029;-95
2023/07/25 13:36:22;;;;;;;9.90;5.40;;;;;;;39.30;27.85;98346.69;6353861;22;19998;-95
2023/07/25 13:38:54;;;;;;;8.85;5.20;;;;;;;39.31;27.66;98334.94;6301752;22;20017;-96
2023/07/25 13:41:27;;;;;;;11.55;4.90;;;;;;;39.21;27.56;98341.97;6332085;22;20002;-95
2023/07/25 13:44:20;;;;;;;9.73;5.47;;;;;;;39.32;28.42;98332.91;6337686;22;20050;-96
2023/07/25 13:49:36;;;;;;;9.18;4.93;;;;;;;39.62;27.19;98333.59;6375177;22;20023;-96
2023/07/25 13:52:15;;;;;;;11.60;5.13;;;;;;;39.61;27.34;98324.34;6313911;22;20038;-96
2023/07/25 13:55:02;;;;;;;;;;;;;;;;;;;;;
2023/07/25 13:57:45;;;;;;;9.32;4.90;;;;;;;39.94;26.66;98322.47;6362853;22;20010;-95
2023/07/25 14:00:13;;;;;;;11.98;5.80;;;;;;;39.96;26.59;98320.69;6306112;22;20038;-95
2023/07/25 14:09:23;;;;;;;7.68;5.30;;;;;;;40.94;25.66;98323.91;6327908;22;20081;-94
2023/07/25 14:17:13;;;;;;;8.70;5.43;;;;;;;40.81;25.49;98318.69;6384463;22;20041;-95
2023/07/25 14:22:31;;;;;;;7.13;4.85;;;;;;;41.11;25.28;98304.25;6294911;22;20004;-96
2023/07/25 14:27:45;;;;;;;10.05;5.05;;;;;;;41.87;23.48;98285.91;6293356;22;20007;-96
2023/07/25 14:30:37;;;;;;;8.30;4.80;;;;;;;41.87;24.38;98291.56;6247970;22;20007;-95
2023/07/25 14:33:17;;;;;;;10.07;5.72;;;;;;;41.76;24.24;98295.88;6123648;23;20231;-96
2023/07/25 14:35:54;;;;;;;9.65;5.18;;;;;;;41.74;24.25;98306.94;6151839;23;20005;-96
2023/07/25 14:38:54;;;;;;;7.85;5.15;;;;;;;41.52;24.09;98301.94;6123504;23;20084;-96
2023/07/25 14:41:29;;;;;;;9.15;4.90;;;;;;;41.48;24.32;98307.06;6082212;23;19998;-96
2023/07/25 14:44:05;;;;;;;9.85;5.30;;;;;;;41.19;24.17;98280.72;6208255;22;20054;-96
2023/07/25 14:51:45;;;;;;;11.60;5.00;;;;;;;41.90;23.84;98282.03;6342923;22;20034;-96
2023/07/25 14:56:51;;;;;;;11.77;5.20;;;;;;;42.30;23.07;98278.03;6288649;22;20024;-96
2023/07/25 14:59:19;;;;;;;7.80;4.82;;;;;;;42.36;22.97;98280.88;6235236;22;20015;-96
2023/07/25 15:01:49;;;;;;;11.02;5.28;;;;;;;42.19;22.75;98263.84;6211245;22;19999;-96
2023/07/25 15:04:27;;;;;;;6.13;4.68;;;;;;;41.92;22.66;98257.63;6223083;22;20008;-96
2023/07/25 15:09:27;;;;;;;14.30;5.28;;;;;;;42.20;22.65;98265.41;6358898;22;20011;-96